Time;durP1;ratioP1;P1;durP2;ratioP2;P2;SDS_P1;SDS_P2;PMS_P1;PMS_P2;Temp;Humidity;BMP_temperature;BMP_pressure;BME280_temperature;BME280_humidity;BME280_pressure;Samples;Min_cycle;Max_cycle;Signal;HPM_P1;HPM_P2
2022/02/10 00:05:07;;;;;;;7.60;5.90;;;8.90;99.90;;;;;;5027812;28;20115;-86
2022/02/10 00:15:34;;;;;;;8.03;5.50;;;9.30;99.90;;;;;;5023536;28;20067;-84
2022/02/10 00:18:03;;;;;;;7.20;5.10;;;9.20;99.90;;;;;;5025769;28;20050;-86
2022/02/10 00:20:45;;;;;;;7.20;5.73;;;9.10;99.90;;;;;;5023984;28;20057;-85
2022/02/10 00:34:22;;;;;;;7.07;5.45;;;9.30;99.90;;;;;;5024007;28;20520;-86
2022/02/10 00:37:09;;;;;;;9.20;4.80;;;9.20;99.90;;;;;;4995047;28;20125;-84
2022/02/10 00:42:10;;;;;;;7.72;5.75;;;9.30;99.90;;;;;;5016190;28;20033;-86
2022/02/10 00:44:35;;;;;;;5.28;4.70;;;9.30;99.90;;;;;;4986296;28;20034;-85
2022/02/10 00:47:01;;;;;;;8.85;5.50;;;9.20;99.90;;;;;;5001289;28;20034;-84
2022/02/10 00:49:27;;;;;;;10.60;4.95;;;9.20;99.90;;;;;;5022063;28;20022;-85
2022/02/10 00:51:53;;;;;;;7.05;5.00;;;9.30;99.90;;;;;;5020879;28;20029;-86
2022/02/10 00:54:23;;;;;;;6.90;4.88;;;9.30;99.90;;;;;;4985666;28;20466;-84
2022/02/10 00:56:50;;;;;;;6.20;5.35;;;9.30;99.90;;;;;;5005536;28;20064;-84
2022/02/10 00:59:28;;;;;;;8.23;5.28;;;9.30;99.90;;;;;;5003880;28;20042;-86
2022/02/10 01:07:01;;;;;;;5.97;5.38;;;9.20;99.90;;;;;;5003763;28;20049;-84
2022/02/10 01:31:47;;;;;;;7.47;5.20;;;9.00;99.90;;;;;;5020223;28;20482;-85
2022/02/10 01:34:14;;;;;;;7.85;5.50;;;9.10;99.90;;;;;;5005071;28;20410;-85
2022/02/10 01:36:40;;;;;;;11.85;6.00;;;9.10;99.90;;;;;;5004651;28;20030;-85
2022/02/10 01:39:07;;;;;;;6.45;5.40;;;9.00;99.90;;;;;;4999591;28;20030;-84
2022/02/10 02:05:44;;;;;;;6.82;5.82;;;9.00;99.90;;;;;;5021636;28;20026;-86
2022/02/10 02:08:10;;;;;;;7.05;6.15;;;9.10;99.90;;;;;;4989056;28;20034;-84
2022/02/10 02:10:36;;;;;;;7.78;6.20;;;9.10;99.90;;;;;;5006325;28;20042;-84
2022/02/10 02:13:03;;;;;;;8.32;6.05;;;9.20;99.90;;;;;;4988576;28;20499;-85
2022/02/10 02:15:30;;;;;;;7.03;5.95;;;9.20;99.90;;;;;;4987302;28;20064;-84
2022/02/10 02:17:55;;;;;;;7.40;6.22;;;9.00;99.90;;;;;;5019038;28;20030;-85
2022/02/10 02:20:21;;;;;;;8.88;6.55;;;9.10;99.90;;;;;;5010805;28;20049;-84
2022/02/10 02:22:47;;;;;;;8.82;6.05;;;9.00;99.90;;;;;;5004615;28;20117;-83
2022/02/10 02:25:13;;;;;;;8.05;5.75;;;9.10;99.90;;;;;;5005213;28;20065;-84
2022/02/10 02:27:43;;;;;;;7.88;5.90;;;9.00;99.90;;;;;;5020182;28;20034;-83
2022/02/10 02:30:22;;;;;;;7.90;6.72;;;9.10;99.90;;;;;;5021237;28;20694;-83
2022/02/10 02:33:14;;;;;;;7.70;5.68;;;9.10;99.90;;;;;;5021380;28;20367;-83
2022/02/10 03:05:31;;;;;;;6.47;5.27;;;9.30;99.90;;;;;;5000607;28;20437;-83
2022/02/10 03:08:01;;;;;;;6.13;5.32;;;9.40;99.90;;;;;;5000906;28;20265;-84
2022/02/10 03:13:54;;;;;;;6.57;5.40;;;9.40;99.90;;;;;;5018922;28;20032;-86
2022/02/10 03:19:02;;;;;;;9.55;5.70;;;9.40;99.90;;;;;;5018568;28;20042;-86
2022/02/10 04:02:29;;;;;;;8.63;6.65;;;9.00;99.90;;;;;;5036584;28;20029;-85
2022/02/10 04:13:06;;;;;;;9.70;5.93;;;9.20;99.90;;;;;;5040148;28;20030;-85
2022/02/10 04:28:43;;;;;;;11.90;7.78;;;9.20;99.90;;;;;;4999948;28;20375;-84
2022/02/10 04:44:46;;;;;;;13.20;10.63;;;9.00;99.90;;;;;;5025031;28;20022;-84
2022/02/10 05:03:39;;;;;;;12.85;11.52;;;8.90;99.90;;;;;;5020116;28;20084;-83
2022/02/10 05:16:58;;;;;;;13.35;10.57;;;8.90;99.90;;;;;;5020001;28;20077;-84
2022/02/10 05:19:43;;;;;;;10.68;9.50;;;8.80;99.90;;;;;;4994557;28;20033;-84
2022/02/10 05:33:25;;;;;;;14.63;9.05;;;8.50;99.90;;;;;;5020736;28;20037;-84
2022/02/10 05:36:04;;;;;;;10.45;9.05;;;8.40;99.90;;;;;;5020221;28;20044;-87
2022/02/10 05:38:38;;;;;;;11.35;9.13;;;8.40;99.90;;;;;;5006369;28;20040;-86
2022/02/10 05:49:22;;;;;;;15.13;10.10;;;8.30;99.90;;;;;;5020681;28;20389;-88
2022/02/10 07:09:41;;;;;;;19.52;14.07;;;7.70;99.90;;;;;;5025791;28;20026;-85
2022/02/10 07:46:42;;;;;;;17.40;12.38;;;7.40;99.90;;;;;;5018087;28;20054;-83
2022/02/10 08:59:28;;;;;;;12.75;7.90;;;8.20;99.90;;;;;;5023289;28;20030;-86
2022/02/10 09:02:07;;;;;;;11.13;7.50;;;8.30;99.90;;;;;;5020957;28;20035;-89
2022/02/10 09:04:47;;;;;;;12.70;7.60;;;8.30;99.90;;;;;;5024653;28;20045;-89
2022/02/10 09:12:53;;;;;;;9.80;6.95;;;8.40;99.90;;;;;;5023245;28;20030;-87
2022/02/10 09:48:40;;;;;;;20.90;9.30;;;8.70;99.90;;;;;;5012632;28;20021;-86
2022/02/10 10:01:52;;;;;;;13.77;8.43;;;8.90;99.90;;;;;;5001825;28;20037;-84
2022/02/10 10:04:28;;;;;;;15.30;9.02;;;9.00;99.90;;;;;;5027165;28;20041;-87
2022/02/10 10:07:15;;;;;;;12.85;7.65;;;9.10;99.90;;;;;;5016145;28;20034;-87
2022/02/10 10:09:49;;;;;;;19.13;9.73;;;9.10;99.90;;;;;;5029118;28;20108;-85
2022/02/10 10:15:08;;;;;;;10.65;8.13;;;9.10;99.90;;;;;;5025255;28;20034;-85
2022/02/10 10:18:06;;;;;;;13.27;8.55;;;9.10;99.90;;;;;;5023816;28;20033;-84
2022/02/10 10:20:49;;;;;;;10.95;7.63;;;9.10;99.90;;;;;;5011655;28;20114;-86
2022/02/10 10:23:40;;;;;;;12.32;8.20;;;9.20;99.90;;;;;;5021965;28;20030;-85
2022/02/10 10:51:15;;;;;;;9.98;7.53;;;9.80;99.90;;;;;;5020179;28;20066;-82
2022/02/10 10:54:08;;;;;;;34.42;13.32;;;9.70;99.90;;;;;;5006827;28;20034;-81
2022/02/10 10:56:37;;;;;;;11.48;7.43;;;9.80;99.90;;;;;;4995513;28;20037;-82
2022/02/10 11:05:43;;;;;;;14.82;10.02;;;9.80;99.90;;;;;;5024364;28;20034;-84
2022/02/10 11:38:11;;;;;;;21.38;9.57;;;9.80;99.90;;;;;;5036937;28;20044;-84
2022/02/10 11:43:40;;;;;;;17.05;9.93;;;9.60;99.90;;;;;;5010911;28;20064;-88
2022/02/10 12:34:53;;;;;;;13.85;9.38;;;8.80;99.90;;;;;;5039152;28;20014;-85
2022/02/10 13:34:10;;;;;;;20.23;11.65;;;8.70;99.90;;;;;;5032351;28;20397;-54
2022/02/10 13:36:04;;;;;;;21.42;12.65;;;8.60;99.90;;;;;;5024065;28;20076;-55
2022/02/10 14:09:17;;;;;;;18.02;11.80;;;8.70;99.90;;;;;;4991543;28;20475;-54
2022/02/10 14:14:51;;;;;;;20.95;11.75;;;8.70;99.90;;;;;;4992175;28;20058;-55
2022/02/10 14:17:27;;;;;;;15.18;11.20;;;8.70;99.90;;;;;;5022256;28;20041;-53
2022/02/10 14:20:00;;;;;;;17.70;11.25;;;9.00;99.90;;;;;;5031815;28;20448;-57
2022/02/10 14:27:46;;;;;;;18.33;11.98;;;8.80;99.90;;;;;;5012686;28;20026;-54
2022/02/10 14:30:12;;;;;;;16.23;12.32;;;9.00;99.90;;;;;;5011430;28;20053;-52
2022/02/10 14:32:43;;;;;;;16.60;12.10;;;9.10;99.90;;;;;;5012536;28;20125;-55
2022/02/10 14:35:17;;;;;;;18.08;12.70;;;9.00;99.90;;;;;;5012903;28;20065;-55
2022/02/10 14:40:27;;;;;;;20.15;12.85;;;8.70;99.90;;;;;;4995918;28;20133;-55
2022/02/10 14:43:10;;;;;;;20.90;14.85;;;8.70;99.90;;;;;;5013011;28;20486;-54
2022/02/10 15:51:39;;;;;;;22.00;15.77;;;7.90;99.90;;;;;;5015681;28;20065;-56
2022/02/10 16:10:49;;;;;;;23.93;16.53;;;8.00;99.90;;;;;;5015508;28;20069;-51
2022/02/10 16:18:14;;;;;;;25.38;16.15;;;7.90;99.90;;;;;;5013572;28;20034;-54
2022/02/10 16:20:46;;;;;;;24.45;15.60;;;7.90;99.90;;;;;;4994158;28;20457;-52
2022/02/10 16:23:17;;;;;;;21.85;16.50;;;8.00;99.90;;;;;;5010230;28;20100;-54
2022/02/10 16:25:49;;;;;;;28.20;16.58;;;7.90;99.90;;;;;;5012705;28;20030;-55
2022/02/10 16:28:30;;;;;;;24.67;16.48;;;7.70;99.90;;;;;;5013950;28;20038;-56
2022/02/10 16:30:57;;;;;;;22.05;16.52;;;7.80;99.90;;;;;;5014054;28;20025;-53
2022/02/10 16:33:23;;;;;;;21.90;16.58;;;7.80;99.90;;;;;;5027977;28;20026;-57
2022/02/10 16:35:48;;;;;;;24.17;16.60;;;7.90;99.90;;;;;;5019016;28;20405;-56
2022/02/10 16:38:14;;;;;;;27.30;18.10;;;7.90;99.90;;;;;;5019643;28;20044;-56
2022/02/10 16:40:41;;;;;;;24.27;16.95;;;7.70;99.90;;;;;;5019299;28;20029;-52
2022/02/10 16:43:07;;;;;;;23.23;17.10;;;7.80;99.90;;;;;;5024223;28;20041;-55
2022/02/10 16:45:34;;;;;;;27.10;18.45;;;7.80;99.90;;;;;;5026665;28;20021;-54
2022/02/10 16:47:59;;;;;;;21.13;16.88;;;7.80;99.90;;;;;;5034395;28;20092;-55
2022/02/10 16:50:26;;;;;;;23.60;18.40;;;7.80;99.90;;;;;;5014562;28;20037;-56
2022/02/10 16:52:59;;;;;;;22.38;16.92;;;7.80;99.90;;;;;;5013773;28;20108;-56
2022/02/10 17:01:01;;;;;;;24.42;19.67;;;7.80;99.90;;;;;;5012805;28;20061;-57
2022/02/10 17:14:08;;;;;;;25.45;20.20;;;7.30;99.90;;;;;;4998351;28;19913;-56
2022/02/10 17:27:28;;;;;;;26.75;20.25;;;7.50;99.90;;;;;;4996441;28;20030;-53
2022/02/10 17:46:10;;;;;;;;;;;7.60;99.90;;;;;;5014174;28;20564;-55
2022/02/10 17:54:05;;;;;;;26.45;19.25;;;7.30;99.90;;;;;;5011880;28;20030;-53
2022/02/10 17:56:33;;;;;;;24.60;18.65;;;7.30;99.90;;;;;;5013342;28;20041;-55
2022/02/10 17:59:00;;;;;;;25.17;20.02;;;7.30;99.90;;;;;;5013505;28;20128;-52
2022/02/10 18:01:26;;;;;;;26.17;20.77;;;7.40;99.90;;;;;;5012907;28;20034;-53
2022/02/10 18:03:52;;;;;;;25.58;19.50;;;7.30;99.90;;;;;;5012341;28;20034;-56
2022/02/10 18:16:18;;;;;;;25.40;18.45;;;7.40;99.90;;;;;;5012978;28;20034;-54
2022/02/10 18:18:53;;;;;;;25.63;18.48;;;7.40;99.90;;;;;;5012730;28;20037;-54
2022/02/10 18:24:20;;;;;;;22.23;18.25;;;7.50;99.90;;;;;;5011248;28;20096;-56
2022/02/10 18:29:19;;;;;;;;;;;7.40;99.90;;;;;;5013101;28;20022;-55
2022/02/10 18:54:36;;;;;;;24.58;19.70;;;7.40;99.90;;;;;;5009624;28;20022;-53
2022/02/10 19:10:05;;;;;;;21.02;17.23;;;7.10;99.90;;;;;;5022583;28;20025;-53
2022/02/10 19:12:42;;;;;;;22.35;18.15;;;7.30;99.90;;;;;;5015667;28;20034;-52
2022/02/10 19:17:41;;;;;;;22.90;17.23;;;7.20;99.90;;;;;;4997551;28;20026;-51
2022/02/10 19:20:07;;;;;;;20.13;16.95;;;7.20;99.90;;;;;;5012959;28;20113;-51
2022/02/10 19:22:33;;;;;;;22.25;16.38;;;7.20;99.90;;;;;;5015284;28;20040;-51
2022/02/10 19:24:59;;;;;;;19.90;14.85;;;7.10;99.90;;;;;;5015842;28;20030;-52
2022/02/10 19:27:24;;;;;;;18.52;13.98;;;7.00;99.90;;;;;;5021578;28;20037;-50
2022/02/10 19:29:57;;;;;;;19.92;13.50;;;7.10;99.90;;;;;;5015474;28;20477;-53
2022/02/10 19:32:30;;;;;;;16.73;12.95;;;7.00;99.90;;;;;;5015345;28;20044;-56
2022/02/10 19:34:58;;;;;;;14.90;11.88;;;7.10;99.90;;;;;;5015362;28;20022;-54
2022/02/10 19:37:26;;;;;;;17.77;12.38;;;7.30;99.90;;;;;;5015401;28;20458;-55
2022/02/10 19:39:58;;;;;;;17.27;11.90;;;7.10;99.90;;;;;;5015973;28;20022;-56
2022/02/10 19:42:27;;;;;;;16.38;11.65;;;7.00;99.90;;;;;;5015374;28;20064;-53
2022/02/10 19:44:57;;;;;;;11.73;9.95;;;7.20;99.90;;;;;;5015975;28;20072;-57
2022/02/10 19:47:23;;;;;;;12.50;10.25;;;7.20;99.90;;;;;;5015647;28;20026;-55
2022/02/10 19:49:49;;;;;;;12.38;9.93;;;7.10;99.90;;;;;;5016016;28;20096;-54
2022/02/10 19:52:17;;;;;;;12.68;9.45;;;7.00;99.90;;;;;;5015462;28;20133;-57
2022/02/10 19:54:48;;;;;;;10.93;9.15;;;7.00;99.90;;;;;;5016056;28;20026;-55
2022/02/10 19:57:13;;;;;;;13.38;10.80;;;7.10;99.90;;;;;;5015354;28;20029;-56
2022/02/10 19:59:39;;;;;;;12.70;10.15;;;7.00;99.90;;;;;;5015973;28;20034;-56
2022/02/10 20:02:06;;;;;;;13.65;10.68;;;7.00;99.90;;;;;;5014957;28;20037;-52
2022/02/10 20:04:32;;;;;;;12.20;9.77;;;7.20;99.90;;;;;;5015320;28;20441;-55
2022/02/10 20:06:57;;;;;;;12.15;10.25;;;7.10;99.90;;;;;;5015611;28;20034;-54
2022/02/10 20:09:24;;;;;;;14.32;10.80;;;7.10;99.90;;;;;;5015714;28;20397;-56
2022/02/10 20:11:51;;;;;;;11.35;10.00;;;7.20;99.90;;;;;;5000554;28;20042;-55
2022/02/10 20:14:22;;;;;;;11.05;9.65;;;7.10;99.90;;;;;;4995473;28;20048;-50
2022/02/10 20:16:51;;;;;;;13.73;10.38;;;7.20;99.90;;;;;;5011810;28;20030;-55
2022/02/10 20:19:17;;;;;;;12.55;10.45;;;7.20;99.90;;;;;;4996823;28;20032;-52
2022/02/10 20:21:43;;;;;;;12.23;10.15;;;7.20;99.90;;;;;;5015157;28;20042;-56
2022/02/10 20:24:09;;;;;;;12.90;11.48;;;7.40;99.90;;;;;;5014926;28;20046;-55
2022/02/10 20:26:35;;;;;;;17.42;13.45;;;7.40;99.90;;;;;;5014679;28;20092;-55
2022/02/10 20:29:01;;;;;;;12.07;10.73;;;7.40;99.90;;;;;;5014723;28;20089;-54
2022/02/10 20:31:29;;;;;;;13.85;10.43;;;7.50;99.90;;;;;;5016463;28;20125;-60
2022/02/10 20:33:55;;;;;;;11.40;9.60;;;7.50;99.90;;;;;;5011441;28;20088;-57
2022/02/10 20:36:21;;;;;;;12.18;10.88;;;7.60;99.90;;;;;;5007766;28;20069;-57
2022/02/10 20:38:50;;;;;;;13.68;10.77;;;7.50;99.90;;;;;;5014321;28;20025;-58
2022/02/10 20:41:18;;;;;;;12.48;10.80;;;7.60;99.90;;;;;;5007791;28;20137;-58
2022/02/10 20:43:46;;;;;;;13.38;11.43;;;7.60;99.90;;;;;;5014617;28;20021;-57
2022/02/10 20:46:16;;;;;;;14.45;11.07;;;7.70;99.90;;;;;;5014647;28;20415;-59
2022/02/10 20:48:43;;;;;;;12.82;10.82;;;7.70;99.90;;;;;;5013520;28;20034;-55
2022/02/10 20:51:15;;;;;;;13.25;10.75;;;7.80;99.90;;;;;;5011181;28;20037;-58
2022/02/10 20:53:47;;;;;;;10.07;9.02;;;7.70;99.90;;;;;;5011897;28;20374;-54
2022/02/10 20:56:15;;;;;;;12.95;10.23;;;7.80;99.90;;;;;;4995518;28;20049;-58
2022/02/10 20:58:42;;;;;;;11.00;9.02;;;7.80;99.90;;;;;;5006634;28;20532;-58
2022/02/10 21:01:11;;;;;;;8.98;7.72;;;7.60;99.90;;;;;;5013952;28;20037;-59
2022/02/10 21:03:37;;;;;;;9.75;8.25;;;7.60;99.90;;;;;;5014076;28;20033;-57
2022/02/10 21:06:11;;;;;;;10.98;8.43;;;7.60;99.90;;;;;;5013944;28;20052;-59
2022/02/10 21:11:13;;;;;;;8.18;7.22;;;7.60;99.90;;;;;;5018613;28;20106;-59
2022/02/10 21:13:39;;;;;;;9.90;7.95;;;7.60;99.90;;;;;;5024259;28;20618;-58
2022/02/10 21:16:05;;;;;;;12.52;8.50;;;7.30;99.90;;;;;;5014110;28;20061;-56
2022/02/10 21:18:31;;;;;;;9.88;7.00;;;7.30;99.90;;;;;;5013538;28;20026;-57
2022/02/10 21:21:04;;;;;;;7.95;6.45;;;7.50;99.90;;;;;;5013730;28;20033;-57
2022/02/10 21:23:38;;;;;;;9.95;6.57;;;7.40;99.90;;;;;;5013197;28;20046;-58
2022/02/10 21:26:05;;;;;;;7.32;6.10;;;7.30;99.90;;;;;;4981119;28;20117;-56
2022/02/10 21:28:34;;;;;;;7.68;6.88;;;7.40;99.90;;;;;;5009158;28;20573;-59
2022/02/10 21:31:03;;;;;;;8.60;6.53;;;7.40;99.90;;;;;;4995632;28;20044;-58
2022/02/10 21:33:44;;;;;;;14.82;7.32;;;7.40;99.90;;;;;;5013077;28;20478;-58
2022/02/10 21:38:42;;;;;;;9.10;6.68;;;7.30;99.90;;;;;;5015635;28;20583;-54
2022/02/10 22:21:08;;;;;;;7.45;4.68;;;6.90;99.90;;;;;;5012654;28;20030;-56
2022/02/10 22:23:36;;;;;;;5.13;4.30;;;7.00;99.90;;;;;;5014750;28;20026;-56
2022/02/10 22:26:07;;;;;;;5.68;4.47;;;7.10;99.90;;;;;;5012651;28;20497;-57
2022/02/10 22:28:46;;;;;;;6.85;4.60;;;7.00;99.90;;;;;;4994343;28;20080;-54
2022/02/10 22:36:26;;;;;;;4.38;3.10;;;7.00;99.90;;;;;;5012055;28;20030;-58
2022/02/10 22:38:57;;;;;;;7.50;3.55;;;6.60;99.90;;;;;;5012587;28;20049;-55
2022/02/10 22:41:22;;;;;;;5.22;3.30;;;6.60;99.90;;;;;;5012675;28;20065;-60
2022/02/10 22:43:50;;;;;;;4.05;2.55;;;6.80;99.90;;;;;;4994999;28;20065;-59
2022/02/10 22:46:17;;;;;;;4.85;3.00;;;7.10;99.90;;;;;;5012405;28;20497;-58
2022/02/10 22:48:44;;;;;;;4.20;2.30;;;7.10;99.90;;;;;;5012154;28;20099;-59
2022/02/10 22:51:15;;;;;;;3.13;2.28;;;7.10;99.90;;;;;;5012092;28;20498;-55
2022/02/10 22:53:41;;;;;;;3.63;2.55;;;7.00;99.90;;;;;;5011869;28;20030;-57
2022/02/10 22:56:08;;;;;;;3.42;2.30;;;7.10;99.90;;;;;;5012275;28;20045;-58
2022/02/10 22:58:36;;;;;;;5.82;2.50;;;7.20;99.90;;;;;;5012612;28;20032;-59
2022/02/10 23:01:02;;;;;;;4.05;2.63;;;7.20;99.90;;;;;;5012153;28;20034;-58
2022/02/10 23:03:28;;;;;;;4.20;2.50;;;7.20;99.90;;;;;;5012469;28;20054;-59
2022/02/10 23:05:55;;;;;;;4.43;2.42;;;7.10;99.90;;;;;;5008523;28;20068;-65
2022/02/10 23:08:21;;;;;;;3.25;2.38;;;7.20;99.90;;;;;;5011702;28;20037;-64
2022/02/10 23:10:48;;;;;;;3.10;2.40;;;7.20;99.90;;;;;;5008461;28;20444;-62
2022/02/10 23:13:17;;;;;;;4.25;2.50;;;7.20;99.90;;;;;;5011935;28;20501;-60
2022/02/10 23:15:44;;;;;;;3.45;2.35;;;7.10;99.90;;;;;;5021642;28;20388;-57
2022/02/10 23:18:30;;;;;;;3.53;2.35;;;7.10;99.90;;;;;;5025505;28;20021;-59
2022/02/10 23:20:59;;;;;;;3.92;2.65;;;7.10;99.90;;;;;;5012199;28;20045;-58
2022/02/10 23:23:27;;;;;;;4.25;2.60;;;7.00;99.90;;;;;;5012205;28;20073;-61
2022/02/10 23:25:55;;;;;;;4.35;2.53;;;7.20;99.90;;;;;;5014627;28;20042;-57
2022/02/10 23:28:28;;;;;;;3.00;2.38;;;7.00;99.90;;;;;;5016138;28;20042;-60
2022/02/10 23:30:54;;;;;;;7.10;3.97;;;6.90;99.90;;;;;;5017095;28;20041;-59
2022/02/10 23:44:00;;;;;;;5.30;2.95;;;6.60;99.90;;;;;;5014280;28;20129;-57
2022/02/10 23:46:27;;;;;;;3.17;2.72;;;6.70;99.90;;;;;;5014756;28;20093;-60
2022/02/10 23:48:54;;;;;;;5.68;2.75;;;6.70;99.90;;;;;;5015572;28;20470;-58
2022/02/10 23:51:23;;;;;;;6.03;3.67;;;6.80;99.90;;;;;;5014537;28;20397;-57
2022/02/10 23:53:49;;;;;;;4.35;2.70;;;6.80;99.90;;;;;;5014428;28;20030;-58
2022/02/10 23:56:17;;;;;;;3.50;2.90;;;6.60;99.90;;;;;;5014659;28;20028;-57
2022/02/10 23:58:54;;;;;;;5.25;3.10;;;6.60;99.90;;;;;;5014897;28;20118;-60
